Time;durP1;ratioP1;P1;durP2;ratioP2;P2;SDS_P1;SDS_P2;PMS_P1;PMS_P2;Temp;Humidity;BMP_temperature;BMP_pressure;BME280_temperature;BME280_humidity;BME280_pressure;Samples;Min_cycle;Max_cycle;Signal;HPM_P1;HPM_P2
2022/11/20 00:01:43;;;;;;;8.57;7.77;;;6.90;99.90;;;;;;4993059;28;20186;-86
2022/11/20 00:04:10;;;;;;;8.93;8.13;;;6.90;99.90;;;;;;4996989;28;20212;-87
2022/11/20 00:06:35;;;;;;;9.03;8.23;;;6.90;99.90;;;;;;5001786;28;20186;-89
2022/11/20 00:09:01;;;;;;;9.07;8.17;;;6.90;99.90;;;;;;4993379;28;20211;-86
2022/11/20 00:11:29;;;;;;;9.17;8.27;;;7.00;99.90;;;;;;4998797;28;20226;-87
2022/11/20 00:13:57;;;;;;;9.20;8.33;;;7.00;99.90;;;;;;5005831;28;20209;-86
2022/11/20 00:16:25;;;;;;;8.93;8.07;;;6.90;99.90;;;;;;4980818;28;20301;-88
2022/11/20 00:18:51;;;;;;;9.60;8.80;;;7.00;99.90;;;;;;4995698;28;20278;-87
2022/11/20 00:21:19;;;;;;;9.90;9.10;;;6.90;99.90;;;;;;4998382;28;20278;-86
2022/11/20 00:23:45;;;;;;;9.57;8.57;;;6.60;99.90;;;;;;4996907;28;20189;-87
2022/11/20 00:26:15;;;;;;;10.30;9.30;;;6.60;99.90;;;;;;4995957;28;20187;-88
2022/11/20 00:28:41;;;;;;;8.47;7.77;;;6.60;99.90;;;;;;5002401;28;20261;-86
2022/11/20 00:31:12;;;;;;;10.63;8.90;;;6.70;99.90;;;;;;5000889;28;20241;-87
2022/11/20 00:33:39;;;;;;;9.63;8.73;;;6.70;99.90;;;;;;4993999;28;20305;-87
2022/11/20 00:36:07;;;;;;;10.27;9.27;;;6.60;99.90;;;;;;4995129;28;20194;-86
2022/11/20 00:38:33;;;;;;;8.87;8.03;;;6.70;99.90;;;;;;4995593;28;20202;-86
2022/11/20 00:41:04;;;;;;;9.00;8.20;;;6.70;99.90;;;;;;4992717;28;20242;-88
2022/11/20 00:43:30;;;;;;;10.30;9.30;;;6.70;99.90;;;;;;5000747;28;20194;-86
2022/11/20 00:45:58;;;;;;;9.23;8.43;;;6.70;99.90;;;;;;4997537;28;20210;-87
2022/11/20 00:48:24;;;;;;;9.67;8.77;;;6.60;99.90;;;;;;4993091;28;20190;-88
2022/11/20 00:50:49;;;;;;;9.73;8.77;;;6.60;99.90;;;;;;4997365;28;20265;-86
2022/11/20 00:53:15;;;;;;;10.47;9.37;;;6.70;99.90;;;;;;4988305;28;20277;-87
2022/11/20 00:55:41;;;;;;;9.33;8.37;;;6.70;99.90;;;;;;5006102;28;20182;-88
2022/11/20 00:58:06;;;;;;;10.00;9.07;;;6.80;99.90;;;;;;4994953;28;20245;-85
2022/11/20 01:00:32;;;;;;;8.73;7.93;;;6.80;99.90;;;;;;4997906;28;20217;-86
2022/11/20 01:02:58;;;;;;;9.93;9.03;;;6.80;99.90;;;;;;4999647;28;20187;-87
2022/11/20 01:05:24;;;;;;;9.67;8.77;;;6.90;99.90;;;;;;4988391;28;20763;-84
2022/11/20 01:07:49;;;;;;;8.90;8.20;;;6.80;99.90;;;;;;4996542;28;20197;-86
2022/11/20 01:10:15;;;;;;;9.53;8.63;;;6.70;99.90;;;;;;4994143;28;20225;-87
2022/11/20 01:12:41;;;;;;;9.00;8.20;;;6.80;99.90;;;;;;5000506;28;20684;-85
2022/11/20 01:15:07;;;;;;;9.70;8.80;;;6.90;99.90;;;;;;5004928;28;20226;-87
2022/11/20 01:17:33;;;;;;;9.67;8.77;;;6.90;99.90;;;;;;5001615;28;22079;-87
2022/11/20 01:19:59;;;;;;;10.83;9.83;;;7.00;99.90;;;;;;4998548;28;20203;-86
2022/11/20 01:22:25;;;;;;;9.87;8.87;;;6.90;99.90;;;;;;4993305;28;20676;-87
2022/11/20 01:24:50;;;;;;;8.63;7.83;;;6.90;99.90;;;;;;4999888;28;20218;-86
2022/11/20 01:27:16;;;;;;;10.10;9.13;;;6.90;99.90;;;;;;4996910;28;20275;-86
2022/11/20 01:29:42;;;;;;;9.67;8.67;;;6.70;99.90;;;;;;5002185;28;20209;-86
2022/11/20 01:32:07;;;;;;;10.90;9.90;;;6.60;99.90;;;;;;5001504;28;20257;-88
2022/11/20 01:34:33;;;;;;;10.47;9.47;;;6.40;99.90;;;;;;5002019;28;20261;-86
2022/11/20 01:36:59;;;;;;;9.23;8.23;;;6.30;99.90;;;;;;4990431;28;20607;-86
2022/11/20 01:39:26;;;;;;;10.37;9.37;;;6.30;99.90;;;;;;4988366;28;20747;-86
2022/11/20 01:44:52;;;;;;;9.27;8.37;;;6.30;99.90;;;;;;4999710;28;20189;-87
2022/11/20 01:47:27;;;;;;;8.47;7.77;;;6.50;99.90;;;;;;5005099;28;20557;-86
2022/11/20 01:49:58;;;;;;;8.53;7.63;;;6.60;99.90;;;;;;4996103;28;20216;-87
2022/11/20 01:52:32;;;;;;;9.53;8.13;;;6.70;99.90;;;;;;4999710;28;20229;-86
2022/11/20 01:55:07;;;;;;;8.77;7.87;;;6.80;99.90;;;;;;5005424;28;20162;-88
2022/11/20 01:57:35;;;;;;;8.23;7.50;;;6.80;99.90;;;;;;4989607;28;20281;-88
2022/11/20 02:00:11;;;;;;;8.97;7.33;;;6.80;99.90;;;;;;5003432;28;20276;-87
2022/11/20 02:02:39;;;;;;;8.40;7.60;;;6.90;99.90;;;;;;5003272;28;20190;-87
2022/11/20 02:05:17;;;;;;;8.90;8.00;;;6.70;99.90;;;;;;4994543;28;20242;-88
2022/11/20 02:07:44;;;;;;;8.57;7.67;;;6.70;99.90;;;;;;4993462;28;20190;-87
2022/11/20 02:10:11;;;;;;;8.67;7.87;;;6.80;99.90;;;;;;4985376;28;20282;-86
2022/11/20 02:15:21;;;;;;;8.30;7.57;;;6.70;99.90;;;;;;4991755;28;20238;-86
2022/11/20 02:17:47;;;;;;;8.53;7.80;;;6.70;99.90;;;;;;4989392;28;20479;-86
2022/11/20 02:20:13;;;;;;;9.40;8.23;;;6.60;99.90;;;;;;4988729;28;20277;-85
2022/11/20 02:22:50;;;;;;;8.60;7.70;;;6.70;99.90;;;;;;5000978;28;20274;-88
2022/11/20 02:25:17;;;;;;;9.77;8.50;;;6.80;99.90;;;;;;4996725;28;20191;-87
2022/11/20 02:27:43;;;;;;;8.87;7.93;;;6.80;99.90;;;;;;5001672;28;20671;-85
2022/11/20 02:30:10;;;;;;;8.53;7.73;;;6.90;99.90;;;;;;4995560;28;20210;-87
2022/11/20 02:32:37;;;;;;;8.03;7.23;;;6.90;99.90;;;;;;4992883;28;20237;-86
2022/11/20 02:35:18;;;;;;;8.93;8.03;;;6.90;99.90;;;;;;5002783;28;20210;-88
2022/11/20 02:37:47;;;;;;;9.73;7.87;;;7.00;99.90;;;;;;5000438;28;20214;-87
2022/11/20 02:40:13;;;;;;;8.57;7.30;;;6.90;99.90;;;;;;4995211;28;20203;-88
2022/11/20 02:42:38;;;;;;;9.03;8.10;;;6.90;99.90;;;;;;4998549;28;20190;-87
2022/11/20 02:45:06;;;;;;;8.53;7.70;;;7.00;99.90;;;;;;5000023;28;20179;-86
2022/11/20 02:47:32;;;;;;;8.20;7.40;;;6.90;99.90;;;;;;5001392;28;20183;-86
2022/11/20 02:49:58;;;;;;;7.57;6.87;;;7.00;99.90;;;;;;4987015;28;20209;-85
2022/11/20 02:52:24;;;;;;;8.00;7.20;;;7.10;99.90;;;;;;5004876;28;20182;-87
2022/11/20 02:54:49;;;;;;;8.40;7.60;;;7.10;99.90;;;;;;4989568;28;20210;-86
2022/11/20 02:57:15;;;;;;;8.23;7.47;;;7.10;99.90;;;;;;4995127;28;20175;-87
2022/11/20 02:59:41;;;;;;;8.47;7.77;;;7.20;99.90;;;;;;4998331;28;20218;-87
2022/11/20 03:02:06;;;;;;;7.93;7.23;;;7.10;99.90;;;;;;5005833;28;20205;-86
2022/11/20 03:04:32;;;;;;;8.97;7.10;;;7.20;99.90;;;;;;5004592;28;20190;-87
2022/11/20 03:06:58;;;;;;;7.60;6.80;;;7.20;99.90;;;;;;5000148;28;20240;-86
2022/11/20 03:09:24;;;;;;;7.80;6.53;;;7.20;99.90;;;;;;5006484;28;20206;-88
2022/11/20 03:11:50;;;;;;;7.80;6.73;;;7.10;99.90;;;;;;5009545;28;20434;-86
2022/11/20 03:14:15;;;;;;;7.77;6.73;;;7.00;99.90;;;;;;4994668;28;20191;-86
2022/11/20 03:16:41;;;;;;;7.73;6.83;;;7.00;99.90;;;;;;5000925;28;20190;-87
2022/11/20 03:19:07;;;;;;;8.50;7.03;;;7.00;99.90;;;;;;4998185;28;20218;-86
2022/11/20 03:21:33;;;;;;;7.43;6.73;;;7.00;99.90;;;;;;4999162;28;20183;-87
2022/11/20 03:23:59;;;;;;;7.60;6.93;;;7.00;99.90;;;;;;4998279;28;20191;-85
2022/11/20 03:26:26;;;;;;;7.60;6.90;;;7.00;99.90;;;;;;4996630;28;20213;-88
2022/11/20 03:28:59;;;;;;;7.33;6.37;;;7.00;99.90;;;;;;4997204;28;20190;-87
2022/11/20 03:31:37;;;;;;;7.67;6.87;;;7.00;99.90;;;;;;5000946;28;20187;-87
2022/11/20 03:34:03;;;;;;;7.07;6.47;;;7.10;99.90;;;;;;4998992;28;20190;-86
2022/11/20 03:36:30;;;;;;;7.90;6.47;;;7.10;99.90;;;;;;4999654;28;20179;-87
2022/11/20 03:38:57;;;;;;;7.77;6.53;;;7.00;99.90;;;;;;5001458;28;20210;-86
2022/11/20 03:41:28;;;;;;;7.27;6.00;;;7.10;99.90;;;;;;4998437;28;20214;-87
2022/11/20 03:43:56;;;;;;;6.87;6.00;;;7.10;99.90;;;;;;5005445;28;20201;-86
2022/11/20 03:46:22;;;;;;;7.30;6.60;;;7.20;99.90;;;;;;5000249;28;20191;-87
2022/11/20 03:48:48;;;;;;;7.20;6.03;;;7.10;99.90;;;;;;4993032;28;20256;-85
2022/11/20 03:51:16;;;;;;;6.73;5.97;;;7.10;99.90;;;;;;5000842;28;20190;-85
2022/11/20 03:53:43;;;;;;;7.83;6.83;;;7.10;99.90;;;;;;5004094;28;20197;-87
2022/11/20 03:56:10;;;;;;;7.10;6.40;;;7.10;99.90;;;;;;4990929;28;20201;-86
2022/11/20 03:58:39;;;;;;;7.23;6.53;;;7.10;99.90;;;;;;4993906;28;20221;-87
2022/11/20 04:01:17;;;;;;;6.70;5.87;;;7.10;99.90;;;;;;4985092;28;20214;-86
2022/11/20 04:03:43;;;;;;;6.40;5.80;;;7.20;99.90;;;;;;4997790;28;20179;-86
2022/11/20 04:06:13;;;;;;;6.23;5.63;;;7.20;99.90;;;;;;4997718;28;20197;-85
2022/11/20 04:08:39;;;;;;;6.70;6.10;;;7.20;99.90;;;;;;4992003;28;20263;-86
2022/11/20 04:11:32;;;;;;;6.27;5.50;;;7.20;99.90;;;;;;4999071;28;20202;-87
2022/11/20 04:14:00;;;;;;;5.90;5.33;;;7.20;99.90;;;;;;4997319;28;20226;-85
2022/11/20 04:16:28;;;;;;;6.10;5.50;;;7.20;99.90;;;;;;4999046;28;20194;-84
2022/11/20 04:18:56;;;;;;;5.77;5.27;;;7.20;99.90;;;;;;5002877;28;20344;-86
2022/11/20 04:21:23;;;;;;;6.40;5.77;;;7.30;99.90;;;;;;4998439;28;20187;-84
2022/11/20 04:23:49;;;;;;;6.30;5.70;;;7.30;99.90;;;;;;4995002;28;20179;-86
2022/11/20 04:26:15;;;;;;;6.37;5.80;;;7.20;99.90;;;;;;4990867;28;20209;-86
2022/11/20 04:28:41;;;;;;;7.00;5.60;;;7.20;99.90;;;;;;5002638;28;20178;-87
2022/11/20 04:31:12;;;;;;;5.90;5.40;;;7.20;99.90;;;;;;4998035;28;20215;-85
2022/11/20 04:33:39;;;;;;;5.60;5.10;;;7.20;99.90;;;;;;5005795;28;20214;-86
2022/11/20 04:36:11;;;;;;;6.97;5.70;;;7.10;99.90;;;;;;5002108;28;20190;-86
2022/11/20 04:38:37;;;;;;;6.50;5.90;;;7.20;99.90;;;;;;4994676;28;20359;-87
2022/11/20 04:41:05;;;;;;;6.57;5.90;;;7.20;99.90;;;;;;5000183;28;20688;-86
2022/11/20 04:43:32;;;;;;;6.23;5.63;;;7.20;99.90;;;;;;4991260;28;20191;-86
2022/11/20 04:45:59;;;;;;;6.47;5.87;;;7.30;99.90;;;;;;4990736;28;20175;-85
2022/11/20 04:48:25;;;;;;;6.13;5.53;;;7.30;99.90;;;;;;4997872;28;20246;-87
2022/11/20 04:50:52;;;;;;;6.73;6.07;;;7.20;99.90;;;;;;4995866;28;20221;-86
2022/11/20 04:53:18;;;;;;;6.80;6.07;;;7.20;99.90;;;;;;4994389;28;20223;-85
2022/11/20 04:55:45;;;;;;;7.50;6.67;;;7.20;99.90;;;;;;4997465;28;20186;-86
2022/11/20 04:58:11;;;;;;;7.13;6.50;;;7.10;99.90;;;;;;4994986;28;20210;-86
2022/11/20 05:00:37;;;;;;;7.73;6.10;;;7.30;99.90;;;;;;4975988;28;20215;-87
2022/11/20 05:03:02;;;;;;;7.23;5.93;;;7.30;99.90;;;;;;4994042;28;20260;-86
2022/11/20 05:05:28;;;;;;;7.17;6.47;;;7.20;99.90;;;;;;4990328;28;20660;-86
2022/11/20 05:07:59;;;;;;;7.07;6.37;;;7.20;99.90;;;;;;4992062;28;20257;-86
2022/11/20 05:10:25;;;;;;;7.17;6.27;;;7.20;99.90;;;;;;4971724;28;20214;-86
2022/11/20 05:12:51;;;;;;;6.67;5.97;;;7.10;99.90;;;;;;5002347;28;20197;-86
2022/11/20 05:15:17;;;;;;;6.73;6.10;;;7.10;99.90;;;;;;5000214;28;20218;-87
2022/11/20 05:17:52;;;;;;;6.70;5.90;;;7.10;99.90;;;;;;4991199;28;20225;-86
2022/11/20 05:20:19;;;;;;;5.70;5.10;;;7.10;99.90;;;;;;4989849;28;20206;-88
2022/11/20 05:22:45;;;;;;;6.27;5.47;;;7.20;99.90;;;;;;5002480;28;20757;-85
2022/11/20 05:25:11;;;;;;;6.40;5.70;;;7.20;99.90;;;;;;4997960;28;20175;-86
2022/11/20 05:27:37;;;;;;;8.60;6.30;;;7.20;99.90;;;;;;4995385;28;20264;-87
2022/11/20 05:30:07;;;;;;;6.90;5.50;;;7.10;99.90;;;;;;4993114;28;20622;-86
2022/11/20 05:32:34;;;;;;;6.73;5.50;;;7.20;99.90;;;;;;5001176;28;20179;-86
2022/11/20 05:34:59;;;;;;;7.00;5.83;;;7.20;99.90;;;;;;4998045;28;20687;-87
2022/11/20 05:37:25;;;;;;;6.10;5.50;;;7.20;99.90;;;;;;4995918;28;20182;-86
2022/11/20 05:39:51;;;;;;;6.00;5.40;;;7.10;99.90;;;;;;4987164;28;20273;-88
2022/11/20 05:42:31;;;;;;;6.20;5.20;;;7.10;99.90;;;;;;4992954;28;20215;-87
2022/11/20 05:45:03;;;;;;;6.20;5.57;;;7.10;99.90;;;;;;4997151;28;20193;-86
2022/11/20 05:47:33;;;;;;;6.10;5.43;;;7.00;99.90;;;;;;4989017;28;20198;-86
2022/11/20 05:49:59;;;;;;;7.97;4.80;;;7.00;99.90;;;;;;4996747;28;20214;-86
2022/11/20 05:52:27;;;;;;;7.93;5.50;;;7.00;99.90;;;;;;4996963;28;20652;-86
2022/11/20 05:54:53;;;;;;;6.50;5.00;;;7.00;99.90;;;;;;4996869;28;20238;-86
2022/11/20 05:57:18;;;;;;;5.93;5.20;;;7.10;99.90;;;;;;4995348;28;20230;-86
2022/11/20 05:59:44;;;;;;;5.83;5.00;;;7.10;99.90;;;;;;5000505;28;20245;-86
2022/11/20 06:02:10;;;;;;;5.30;4.80;;;7.10;99.90;;;;;;4990463;28;20182;-87
2022/11/20 06:04:35;;;;;;;5.87;4.93;;;7.20;99.90;;;;;;4993744;28;20274;-87
2022/11/20 06:07:01;;;;;;;6.37;5.00;;;7.10;99.90;;;;;;5002070;28;20199;-86
2022/11/20 06:09:27;;;;;;;4.73;4.23;;;7.10;99.90;;;;;;4995817;28;20321;-84
2022/11/20 06:11:53;;;;;;;8.33;4.90;;;7.10;99.90;;;;;;4990519;28;20200;-88
2022/11/20 06:14:18;;;;;;;5.10;4.60;;;7.10;99.90;;;;;;5001892;28;20253;-86
2022/11/20 06:16:44;;;;;;;4.83;4.43;;;7.10;99.90;;;;;;4997168;28;20571;-87
2022/11/20 06:19:10;;;;;;;5.47;4.90;;;7.00;99.90;;;;;;4999163;28;20210;-86
2022/11/20 06:21:35;;;;;;;6.10;4.30;;;7.10;99.90;;;;;;5006837;28;20194;-85
2022/11/20 06:24:01;;;;;;;6.00;4.70;;;7.10;99.90;;;;;;5007991;28;20206;-86
2022/11/20 06:26:27;;;;;;;4.40;4.00;;;7.10;99.90;;;;;;5000385;28;20225;-86
2022/11/20 06:28:54;;;;;;;7.10;5.07;;;7.10;99.90;;;;;;4999371;28;20209;-87
2022/11/20 06:31:24;;;;;;;5.63;4.30;;;7.00;99.90;;;;;;4990558;28;20210;-86
2022/11/20 06:33:51;;;;;;;5.27;4.77;;;7.00;99.90;;;;;;4992018;28;20636;-86
2022/11/20 06:36:19;;;;;;;5.53;4.10;;;7.00;99.90;;;;;;4995296;28;20205;-87
2022/11/20 06:38:45;;;;;;;4.70;4.20;;;7.00;99.90;;;;;;4995401;28;20234;-86
2022/11/20 06:41:14;;;;;;;5.80;4.90;;;7.00;99.90;;;;;;4993242;28;20293;-86
2022/11/20 06:43:40;;;;;;;7.10;4.80;;;7.00;99.90;;;;;;4984775;28;20190;-86
2022/11/20 06:46:06;;;;;;;5.50;4.40;;;7.00;99.90;;;;;;5001172;28;20183;-86
2022/11/20 06:48:32;;;;;;;5.07;4.60;;;7.00;99.90;;;;;;4993109;28;20660;-86
2022/11/20 06:50:58;;;;;;;5.50;4.40;;;7.10;99.90;;;;;;5004806;28;20198;-86
2022/11/20 06:53:24;;;;;;;4.97;4.43;;;7.10;99.90;;;;;;5005916;28;20193;-86
2022/11/20 06:55:51;;;;;;;4.70;4.30;;;7.10;99.90;;;;;;4993943;28;20202;-88
2022/11/20 06:58:18;;;;;;;6.60;4.50;;;7.00;99.90;;;;;;4991856;28;20210;-87
2022/11/20 07:00:44;;;;;;;4.67;4.27;;;7.00;99.90;;;;;;4996430;28;20210;-86
2022/11/20 07:03:11;;;;;;;4.93;4.40;;;7.10;99.90;;;;;;4993842;28;20225;-86
2022/11/20 07:05:38;;;;;;;4.47;4.07;;;7.10;99.90;;;;;;4996276;28;20182;-85
2022/11/20 07:08:04;;;;;;;4.87;4.40;;;7.10;99.90;;;;;;4993062;28;20223;-87
2022/11/20 07:10:31;;;;;;;4.70;4.30;;;7.10;99.90;;;;;;4999243;28;20213;-86
2022/11/20 07:12:57;;;;;;;4.50;4.10;;;7.20;99.90;;;;;;5008435;28;20252;-87
2022/11/20 07:15:24;;;;;;;5.57;4.07;;;7.10;99.90;;;;;;5001053;28;20178;-86
2022/11/20 07:17:50;;;;;;;4.33;3.97;;;7.10;99.90;;;;;;5003556;28;20302;-86
2022/11/20 07:20:16;;;;;;;4.73;3.70;;;7.10;99.90;;;;;;5002936;28;20746;-86
2022/11/20 07:22:42;;;;;;;4.53;3.90;;;7.10;99.90;;;;;;4999387;28;20183;-87
2022/11/20 07:25:09;;;;;;;4.30;3.90;;;7.00;99.90;;;;;;4999113;28;20206;-86
2022/11/20 07:27:35;;;;;;;4.87;3.97;;;7.00;99.90;;;;;;5003553;28;20191;-87
2022/11/20 07:30:03;;;;;;;5.00;4.03;;;7.10;99.90;;;;;;4991303;28;20238;-86
2022/11/20 07:32:29;;;;;;;4.80;4.00;;;7.20;99.90;;;;;;5002702;28;20182;-87
2022/11/20 07:34:54;;;;;;;4.40;4.00;;;7.10;99.90;;;;;;4995668;28;20225;-87
2022/11/20 07:37:20;;;;;;;4.87;4.33;;;7.20;99.90;;;;;;4990365;28;20214;-87
2022/11/20 07:39:46;;;;;;;5.40;4.30;;;7.20;99.90;;;;;;5002586;28;20218;-87
2022/11/20 07:42:13;;;;;;;4.60;3.97;;;7.20;99.90;;;;;;4998735;28;20183;-86
2022/11/20 07:44:39;;;;;;;4.57;4.17;;;7.20;99.90;;;;;;4998840;28;20185;-87
2022/11/20 07:47:05;;;;;;;4.97;4.47;;;7.30;99.90;;;;;;4989619;28;20225;-87
2022/11/20 07:49:31;;;;;;;5.77;4.57;;;7.20;99.90;;;;;;5002750;28;20246;-89
2022/11/20 07:51:56;;;;;;;5.73;4.20;;;7.10;99.90;;;;;;5007346;28;20174;-87
2022/11/20 07:54:22;;;;;;;4.83;4.33;;;7.10;99.90;;;;;;5010360;28;20178;-86
2022/11/20 07:56:49;;;;;;;5.90;5.30;;;7.10;99.90;;;;;;5015714;28;20190;-87
2022/11/20 07:59:15;;;;;;;5.40;5.00;;;7.10;99.90;;;;;;5006749;28;20210;-88
2022/11/20 08:01:42;;;;;;;6.70;5.53;;;7.00;99.90;;;;;;4994078;28;20210;-88
2022/11/20 08:04:09;;;;;;;5.67;5.13;;;7.00;99.90;;;;;;5006943;28;20178;-84
2022/11/20 08:06:36;;;;;;;6.23;5.63;;;7.00;99.90;;;;;;4997176;28;20194;-87
2022/11/20 08:09:02;;;;;;;6.73;5.80;;;7.00;99.90;;;;;;5004757;28;20186;-87
2022/11/20 08:14:13;;;;;;;5.80;5.30;;;7.00;99.90;;;;;;5007637;28;20209;-86
2022/11/20 08:16:49;;;;;;;5.53;5.03;;;7.00;99.90;;;;;;4990493;28;20183;-85
2022/11/20 08:19:16;;;;;;;5.70;5.20;;;7.00;99.90;;;;;;5008888;28;20237;-86
2022/11/20 08:21:42;;;;;;;6.30;5.37;;;6.90;99.90;;;;;;4990535;28;20191;-86
2022/11/20 08:24:10;;;;;;;6.30;5.43;;;6.90;99.90;;;;;;5001979;28;20274;-86
2022/11/20 08:26:37;;;;;;;5.67;5.17;;;7.10;99.90;;;;;;5007483;28;20182;-86
2022/11/20 08:29:04;;;;;;;7.70;5.33;;;7.20;99.90;;;;;;5002680;28;20185;-89
2022/11/20 08:31:30;;;;;;;5.50;5.00;;;7.10;99.90;;;;;;5017786;28;20218;-87
2022/11/20 08:33:56;;;;;;;6.50;5.47;;;7.10;99.90;;;;;;5018889;28;20198;-87
2022/11/20 08:36:23;;;;;;;6.00;5.13;;;7.00;99.90;;;;;;5018665;28;20174;-88
2022/11/20 08:38:50;;;;;;;6.83;5.73;;;7.00;99.90;;;;;;5000126;28;20210;-86
2022/11/20 08:41:26;;;;;;;5.57;5.07;;;7.10;99.90;;;;;;5005618;28;20210;-86
2022/11/20 08:43:53;;;;;;;6.03;5.27;;;7.10;99.90;;;;;;4994946;28;20559;-87
2022/11/20 08:46:19;;;;;;;6.10;5.23;;;7.10;99.90;;;;;;4989956;28;20353;-87
2022/11/20 08:48:45;;;;;;;5.87;5.37;;;7.20;99.90;;;;;;5002551;28;20186;-85
2022/11/20 08:51:11;;;;;;;5.63;5.03;;;7.20;99.90;;;;;;4990578;28;20266;-88
2022/11/20 08:53:38;;;;;;;6.37;5.00;;;7.30;99.90;;;;;;4981932;28;20206;-86
2022/11/20 08:56:04;;;;;;;6.00;5.40;;;7.30;99.90;;;;;;4992298;28;20617;-87
2022/11/20 08:58:29;;;;;;;5.17;4.77;;;7.30;99.90;;;;;;4992303;28;20230;-86
2022/11/20 09:03:29;;;;;;;5.10;4.60;;;7.30;99.90;;;;;;5025112;28;20218;-87
2022/11/20 09:06:06;;;;;;;4.90;4.50;;;7.30;99.90;;;;;;5023294;28;20544;-91
2022/11/20 09:08:31;;;;;;;5.20;4.70;;;7.30;99.90;;;;;;5022658;28;20181;-85
2022/11/20 09:10:58;;;;;;;6.67;4.50;;;7.30;99.90;;;;;;5016510;28;20679;-88
2022/11/20 09:13:26;;;;;;;5.10;4.60;;;7.30;99.90;;;;;;5021469;28;20184;-85
2022/11/20 09:15:59;;;;;;;5.10;4.70;;;7.30;99.90;;;;;;5016286;28;20703;-87
2022/11/20 09:18:25;;;;;;;8.80;4.77;;;7.40;99.90;;;;;;5017749;28;20269;-87
2022/11/20 09:20:51;;;;;;;5.47;4.47;;;7.40;99.90;;;;;;5020334;28;20229;-87
2022/11/20 09:23:17;;;;;;;5.80;4.23;;;7.30;99.90;;;;;;5022076;28;20189;-88
2022/11/20 09:25:43;;;;;;;5.30;4.80;;;7.40;99.90;;;;;;5019608;28;20637;-87
2022/11/20 09:28:09;;;;;;;5.23;4.67;;;7.40;99.90;;;;;;5021982;28;20217;-87
2022/11/20 09:30:35;;;;;;;5.30;4.80;;;7.40;99.90;;;;;;5018817;28;20200;-88
2022/11/20 09:33:01;;;;;;;5.40;4.57;;;7.30;99.90;;;;;;5023199;28;20257;-86
2022/11/20 09:35:26;;;;;;;5.20;4.80;;;7.30;99.90;;;;;;5022213;28;20212;-86
2022/11/20 09:37:52;;;;;;;5.43;4.60;;;7.40;99.90;;;;;;5022849;28;20225;-86
2022/11/20 09:40:22;;;;;;;6.93;5.00;;;7.40;99.90;;;;;;5020583;28;20205;-87
2022/11/20 09:42:57;;;;;;;5.63;5.00;;;7.30;99.90;;;;;;5019408;28;20651;-86
2022/11/20 09:45:48;;;;;;;6.03;5.40;;;7.40;99.90;;;;;;5022984;28;20201;-87
2022/11/20 09:49:04;;;;;;;5.30;4.80;;;7.50;99.90;;;;;;5024331;28;20211;-86
2022/11/20 09:52:16;;;;;;;6.73;5.10;;;7.50;99.90;;;;;;5018474;28;20193;-86
2022/11/20 09:54:43;;;;;;;5.40;4.90;;;7.40;99.90;;;;;;4980426;28;20195;-88
2022/11/20 09:57:12;;;;;;;6.17;4.83;;;7.50;99.90;;;;;;5017269;28;20330;-87
2022/11/20 09:59:40;;;;;;;5.67;5.13;;;7.50;99.90;;;;;;5022554;28;20307;-85
2022/11/20 10:02:35;;;;;;;5.70;5.17;;;7.50;99.90;;;;;;5021375;28;20236;-86
2022/11/20 10:05:25;;;;;;;5.33;4.83;;;7.50;99.90;;;;;;5015761;28;20194;-85
2022/11/20 10:08:20;;;;;;;6.70;5.10;;;7.50;99.90;;;;;;5009796;28;20190;-85
2022/11/20 10:10:54;;;;;;;5.00;4.60;;;7.50;99.90;;;;;;5020955;28;20208;-85
2022/11/20 10:13:46;;;;;;;7.07;4.90;;;7.60;99.90;;;;;;5021544;28;20248;-87
2022/11/20 10:16:54;;;;;;;5.63;5.13;;;7.60;99.90;;;;;;5021496;28;20185;-87
2022/11/20 10:19:37;;;;;;;5.30;4.67;;;7.70;99.90;;;;;;5015273;28;20279;-88
2022/11/20 10:22:31;;;;;;;7.00;4.80;;;7.80;99.90;;;;;;5002128;28;20197;-86
2022/11/20 10:25:12;;;;;;;6.87;5.13;;;7.90;99.90;;;;;;5017241;28;20178;-86
2022/11/20 10:27:56;;;;;;;6.07;5.13;;;8.00;99.90;;;;;;5021847;28;20252;-87
2022/11/20 10:30:24;;;;;;;6.17;5.50;;;8.20;99.90;;;;;;5021650;28;20217;-87
2022/11/20 10:33:09;;;;;;;6.63;5.00;;;8.10;99.90;;;;;;5024047;28;20178;-88
2022/11/20 10:35:37;;;;;;;8.17;5.17;;;8.00;99.90;;;;;;5024771;28;20196;-89
2022/11/20 10:38:49;;;;;;;6.53;5.40;;;8.00;99.90;;;;;;5024345;28;20201;-85
2022/11/20 10:41:30;;;;;;;4.97;4.47;;;8.00;99.90;;;;;;5012511;28;20193;-87
2022/11/20 10:44:05;;;;;;;6.13;4.30;;;8.20;99.90;;;;;;5024245;28;20226;-85
2022/11/20 10:46:44;;;;;;;8.43;4.67;;;8.20;99.90;;;;;;5023899;28;20185;-87
2022/11/20 10:49:18;;;;;;;5.07;4.57;;;8.40;99.90;;;;;;5027191;28;20193;-85
2022/11/20 10:51:56;;;;;;;5.10;4.57;;;8.30;99.90;;;;;;5025557;28;20197;-87
2022/11/20 10:54:56;;;;;;;5.40;4.73;;;8.30;99.90;;;;;;5026800;28;20208;-86
2022/11/20 10:57:46;;;;;;;5.47;4.80;;;8.60;99.90;;;;;;5026931;28;20243;-88
2022/11/20 11:00:13;;;;;;;6.37;4.60;;;8.60;99.90;;;;;;5017233;28;20776;-87
2022/11/20 11:02:41;;;;;;;7.83;4.07;;;8.80;99.90;;;;;;5024847;28;20181;-86
2022/11/20 11:05:29;;;;;;;5.43;3.90;;;8.80;99.90;;;;;;5022969;28;20284;-87
2022/11/20 11:07:58;;;;;;;4.27;3.60;;;8.90;99.90;;;;;;5023336;28;20227;-88
2022/11/20 11:10:47;;;;;;;7.07;4.30;;;9.20;99.90;;;;;;5025406;28;20273;-87
2022/11/20 11:13:27;;;;;;;5.23;3.90;;;9.00;99.90;;;;;;5022980;28;20197;-87
2022/11/20 11:15:53;;;;;;;6.10;3.63;;;9.10;99.90;;;;;;5018678;28;20216;-85
2022/11/20 11:18:26;;;;;;;7.27;4.27;;;9.00;99.90;;;;;;5027610;28;20210;-87
2022/11/20 11:20:53;;;;;;;3.93;3.60;;;9.40;99.90;;;;;;5027505;28;20232;-86
2022/11/20 11:23:36;;;;;;;5.27;4.20;;;9.80;99.20;;;;;;5027589;28;20177;-86
2022/11/20 11:26:04;;;;;;;3.20;2.83;;;10.10;99.30;;;;;;5007082;28;20166;-86
2022/11/20 11:28:30;;;;;;;6.40;3.50;;;10.10;98.30;;;;;;5023084;28;20182;-87
2022/11/20 11:30:56;;;;;;;4.93;3.07;;;10.10;97.70;;;;;;5025842;28;20301;-88
2022/11/20 11:33:23;;;;;;;5.27;3.57;;;10.10;96.90;;;;;;5025564;28;20594;-87
2022/11/20 11:35:53;;;;;;;5.53;3.73;;;10.40;99.60;;;;;;5025049;28;20181;-86
2022/11/20 11:38:32;;;;;;;5.70;3.20;;;10.70;96.30;;;;;;5025052;28;20875;-90
2022/11/20 11:40:58;;;;;;;3.33;2.90;;;10.70;95.40;;;;;;5024799;28;20700;-87
2022/11/20 11:46:35;;;;;;;3.40;3.10;;;10.40;97.80;;;;;;5026271;28;20188;-87
2022/11/20 11:49:03;;;;;;;4.50;3.20;;;10.40;95.60;;;;;;5020918;28;20194;-88
2022/11/20 11:51:49;;;;;;;4.33;2.97;;;10.10;95.80;;;;;;5024182;28;20201;-87
2022/11/20 11:54:26;;;;;;;3.60;3.20;;;10.10;98.00;;;;;;5024447;28;20687;-88
2022/11/20 11:56:52;;;;;;;5.90;3.83;;;10.80;96.10;;;;;;5018443;28;20293;-87
2022/11/20 11:59:36;;;;;;;3.70;3.20;;;11.20;93.00;;;;;;5024598;28;20240;-87
2022/11/20 12:02:14;;;;;;;5.47;2.90;;;11.40;91.20;;;;;;5025309;28;20229;-87
2022/11/20 12:04:54;;;;;;;2.97;2.70;;;11.80;88.00;;;;;;5026316;28;20209;-89
2022/11/20 12:07:28;;;;;;;3.77;2.60;;;11.80;84.70;;;;;;5016595;28;20220;-90
2022/11/20 12:09:56;;;;;;;4.57;2.70;;;11.90;78.30;;;;;;5026316;28;20214;-87
2022/11/20 12:12:40;;;;;;;3.17;2.80;;;11.60;81.40;;;;;;5026326;28;20178;-87
2022/11/20 12:15:11;;;;;;;2.73;2.33;;;11.00;82.70;;;;;;5027043;28;20211;-85
2022/11/20 12:17:37;;;;;;;3.57;2.30;;;10.60;83.20;;;;;;5026051;28;20201;-88
2022/11/20 12:20:05;;;;;;;5.23;2.77;;;10.20;83.90;;;;;;5025534;28;20198;-87
2022/11/20 12:23:08;;;;;;;2.53;2.33;;;10.40;86.00;;;;;;5023101;28;20178;-90
2022/11/20 12:25:36;;;;;;;3.83;2.70;;;10.50;86.40;;;;;;5019878;28;20224;-87
2022/11/20 12:28:07;;;;;;;3.00;2.70;;;10.80;82.50;;;;;;5039858;28;20189;-88
2022/11/20 12:30:41;;;;;;;2.93;2.50;;;10.60;83.50;;;;;;5025550;28;20221;-89
2022/11/20 12:33:28;;;;;;;3.17;2.47;;;10.40;83.60;;;;;;5021102;28;20186;-87
2022/11/20 12:36:24;;;;;;;4.40;2.07;;;10.20;84.10;;;;;;5010059;28;20196;-88
2022/11/20 12:39:08;;;;;;;5.87;2.30;;;10.10;80.40;;;;;;5024657;28;20300;-87
2022/11/20 12:45:09;;;;;;;3.93;2.10;;;10.40;77.10;;;;;;5015161;28;20197;-87
2022/11/20 12:47:59;;;;;;;2.77;2.10;;;10.60;75.90;;;;;;5004021;28;20178;-88
2022/11/20 12:50:31;;;;;;;3.27;2.00;;;10.90;74.70;;;;;;5003238;28;20266;-87
2022/11/20 12:53:04;;;;;;;3.07;1.97;;;10.60;76.60;;;;;;5012297;28;20221;-86
2022/11/20 12:55:33;;;;;;;2.90;1.83;;;10.40;74.60;;;;;;5023067;28;20181;-86
2022/11/20 12:58:14;;;;;;;5.00;2.30;;;10.30;75.90;;;;;;5024331;28;20622;-89
2022/11/20 13:00:50;;;;;;;2.57;2.20;;;10.00;78.50;;;;;;5022509;28;20217;-87
2022/11/20 13:03:31;;;;;;;2.43;2.00;;;10.10;77.80;;;;;;5019292;28;20273;-91
2022/11/20 13:06:03;;;;;;;5.17;2.60;;;10.50;78.30;;;;;;5019548;28;20177;-86
2022/11/20 13:08:36;;;;;;;2.80;2.03;;;10.70;77.10;;;;;;5020203;28;20298;-87
2022/11/20 13:11:12;;;;;;;5.27;2.33;;;10.90;75.70;;;;;;5026243;28;20205;-90
2022/11/20 13:13:58;;;;;;;3.90;2.10;;;11.40;74.10;;;;;;5024170;28;20209;-90
2022/11/20 13:16:36;;;;;;;2.63;2.00;;;11.30;69.10;;;;;;5017034;28;20181;-86
2022/11/20 13:19:04;;;;;;;3.77;1.90;;;11.10;69.80;;;;;;5020178;28;20224;-91
2022/11/20 13:21:49;;;;;;;2.73;1.97;;;11.20;69.40;;;;;;5025378;28;20200;-87
2022/11/20 13:24:25;;;;;;;2.23;2.03;;;11.00;70.20;;;;;;5006280;28;20177;-87
2022/11/20 13:27:08;;;;;;;4.03;2.13;;;10.80;72.80;;;;;;5026494;28;20698;-88
2022/11/20 13:29:35;;;;;;;2.33;1.87;;;10.60;72.20;;;;;;5011971;28;20228;-86